createdAt,value
2023-04-14T00:01:49.027Z,99.90
2023-04-14T00:04:16.459Z,99.90
2023-04-14T00:06:43.530Z,99.90
2023-04-14T00:09:10.607Z,99.90
2023-04-14T00:11:37.571Z,99.90
2023-04-14T00:14:04.492Z,99.90
2023-04-14T00:16:31.770Z,99.90
2023-04-14T00:18:58.908Z,99.90
2023-04-14T00:21:27.087Z,99.90
2023-04-14T00:23:53.994Z,99.90
2023-04-14T00:26:20.905Z,99.90
2023-04-14T00:28:48.322Z,99.90
2023-04-14T00:31:16.502Z,99.90
2023-04-14T00:33:43.464Z,99.90
2023-04-14T00:36:10.477Z,99.90
2023-04-14T00:38:37.345Z,99.90
2023-04-14T00:41:04.323Z,99.90
2023-04-14T00:43:31.166Z,99.90
2023-04-14T00:45:58.509Z,99.90
2023-04-14T00:48:25.616Z,99.90
2023-04-14T00:50:52.625Z,99.90
2023-04-14T00:53:20.091Z,99.90
2023-04-14T00:55:47.336Z,99.90
2023-04-14T00:58:16.195Z,99.90
2023-04-14T01:00:43.284Z,99.90
2023-04-14T01:03:10.804Z,99.90
2023-04-14T01:05:37.846Z,99.90
2023-04-14T01:08:05.129Z,99.90
2023-04-14T01:10:41.133Z,99.90
2023-04-14T01:13:33.564Z,99.90
2023-04-14T01:16:06.273Z,99.90
2023-04-14T01:18:43.803Z,99.90
2023-04-14T01:21:17.335Z,99.90
2023-04-14T01:24:28.232Z,99.90
2023-04-14T01:27:30.354Z,99.90
2023-04-14T01:30:11.249Z,99.90
2023-04-14T01:32:44.706Z,99.90
2023-04-14T01:35:20.988Z,99.90
2023-04-14T01:37:52.432Z,99.90
2023-04-14T01:40:20.940Z,99.90
2023-04-14T01:42:56.066Z,99.90
2023-04-14T01:45:25.512Z,99.90
2023-04-14T01:47:55.136Z,99.90
2023-04-14T01:50:23.762Z,99.90
2023-04-14T01:52:54.285Z,99.90
2023-04-14T01:55:26.454Z,99.90
2023-04-14T01:57:55.243Z,99.90
2023-04-14T02:00:23.122Z,99.90
2023-04-14T02:02:55.122Z,99.90
2023-04-14T02:05:23.060Z,99.90
2023-04-14T02:07:51.575Z,99.90
2023-04-14T02:10:21.751Z,99.90
2023-04-14T02:12:52.730Z,99.90
2023-04-14T02:15:22.383Z,99.90
2023-04-14T02:17:52.354Z,99.90
2023-04-14T02:20:21.847Z,99.90
2023-04-14T02:22:49.058Z,99.90
2023-04-14T02:25:16.101Z,99.90
2023-04-14T02:27:57.072Z,99.90
2023-04-14T02:30:31.939Z,99.90
2023-04-14T02:33:07.203Z,99.90
2023-04-14T02:35:47.052Z,99.90
2023-04-14T02:38:27.560Z,99.90
2023-04-14T02:40:54.630Z,99.90
2023-04-14T02:43:31.626Z,99.90
2023-04-14T02:46:02.469Z,99.90
2023-04-14T02:48:33.961Z,99.90
2023-04-14T02:51:03.621Z,99.90
2023-04-14T02:53:32.009Z,99.90
2023-04-14T02:56:21.841Z,99.90
2023-04-14T02:58:51.062Z,99.90
2023-04-14T03:01:19.983Z,99.90
2023-04-14T03:03:49.482Z,99.90
2023-04-14T03:06:17.081Z,99.90
2023-04-14T03:08:45.196Z,99.90
2023-04-14T03:11:15.031Z,99.90
2023-04-14T03:13:44.945Z,99.90
2023-04-14T03:16:13.434Z,99.90
2023-04-14T03:18:42.115Z,99.90
2023-04-14T03:21:09.321Z,99.90
2023-04-14T03:23:37.627Z,99.90
2023-04-14T03:26:08.853Z,99.90
2023-04-14T03:28:38.695Z,99.90
2023-04-14T03:31:09.691Z,99.90
2023-04-14T03:33:55.733Z,99.90
2023-04-14T03:36:26.216Z,99.90
2023-04-14T03:38:59.548Z,99.90
2023-04-14T03:41:29.672Z,99.90
2023-04-14T03:43:58.452Z,99.90
2023-04-14T03:46:28.468Z,99.90
2023-04-14T03:48:59.769Z,99.90
2023-04-14T03:51:31.060Z,99.90
2023-04-14T03:53:58.775Z,99.90
2023-04-14T03:56:26.792Z,99.90
2023-04-14T03:58:55.818Z,99.90
2023-04-14T04:01:25.891Z,99.90
2023-04-14T04:04:00.859Z,99.90
2023-04-14T04:06:28.687Z,99.90
2023-04-14T04:08:57.703Z,99.90
2023-04-14T04:11:27.244Z,99.90
2023-04-14T04:13:57.213Z,99.90
2023-04-14T04:16:28.258Z,99.90
2023-04-14T04:18:55.589Z,99.90
2023-04-14T04:21:31.807Z,99.90
2023-04-14T04:24:01.107Z,99.90
2023-04-14T04:26:29.463Z,99.90
2023-04-14T04:29:00.537Z,99.90
2023-04-14T04:31:28.966Z,99.90
2023-04-14T04:33:59.643Z,99.90
2023-04-14T04:36:27.772Z,99.90
2023-04-14T04:38:54.823Z,99.90
2023-04-14T04:41:23.517Z,99.90
2023-04-14T04:43:51.596Z,99.90
2023-04-14T04:46:36.772Z,99.90
2023-04-14T04:49:03.845Z,99.90
2023-04-14T04:51:31.224Z,99.90
2023-04-14T04:53:58.107Z,99.90
2023-04-14T04:56:26.241Z,99.90
2023-04-14T04:58:53.318Z,99.90
2023-04-14T05:01:20.365Z,99.90
2023-04-14T05:03:47.509Z,99.90
2023-04-14T05:06:14.389Z,99.90
2023-04-14T05:08:41.230Z,99.90
2023-04-14T05:11:08.294Z,99.90
2023-04-14T05:13:35.241Z,99.90
2023-04-14T05:16:09.046Z,99.90
2023-04-14T05:18:39.087Z,99.90
2023-04-14T05:21:07.816Z,99.90
2023-04-14T05:23:36.440Z,99.90
2023-04-14T05:26:27.058Z,99.90
2023-04-14T05:28:51.736Z,99.90
2023-04-14T05:31:18.769Z,99.90
2023-04-14T05:33:45.593Z,99.90
2023-04-14T05:36:12.452Z,99.90
2023-04-14T05:38:42.263Z,99.90
2023-04-14T05:41:09.501Z,99.90
2023-04-14T05:43:37.169Z,99.90
2023-04-14T05:46:04.425Z,99.90
2023-04-14T05:48:33.344Z,99.90
2023-04-14T05:51:00.527Z,99.90
2023-04-14T05:53:27.854Z,99.90
2023-04-14T05:55:54.876Z,99.90
2023-04-14T05:58:21.805Z,99.90
2023-04-14T06:00:48.690Z,99.90
2023-04-14T06:03:16.776Z,99.90
2023-04-14T06:05:43.967Z,99.90
2023-04-14T06:08:10.924Z,99.90
2023-04-14T06:10:37.806Z,99.90
2023-04-14T06:13:04.785Z,99.90
2023-04-14T06:15:31.858Z,99.90
2023-04-14T06:17:58.729Z,99.90
2023-04-14T06:20:25.795Z,99.90
2023-04-14T06:22:52.809Z,99.90
2023-04-14T06:25:19.798Z,99.90
2023-04-14T06:27:46.782Z,99.90
2023-04-14T06:30:16.763Z,99.90
2023-04-14T06:32:43.814Z,99.90
2023-04-14T06:35:19.173Z,99.90
2023-04-14T06:37:52.840Z,99.90
2023-04-14T06:40:19.773Z,99.90
2023-04-14T06:42:46.598Z,99.90
2023-04-14T06:45:13.557Z,99.90
2023-04-14T06:47:40.818Z,99.90
2023-04-14T06:50:07.940Z,99.90
2023-04-14T06:52:34.803Z,99.90
2023-04-14T06:55:02.011Z,99.90
2023-04-14T06:57:28.898Z,99.90
2023-04-14T06:59:56.587Z,99.90
2023-04-14T07:02:23.563Z,99.90
2023-04-14T07:04:50.547Z,99.90
2023-04-14T07:07:18.114Z,99.90
2023-04-14T07:09:45.149Z,99.90
2023-04-14T07:12:17.919Z,99.90
2023-04-14T07:14:51.748Z,99.90
2023-04-14T07:17:20.017Z,99.90
2023-04-14T07:19:47.115Z,99.90
2023-04-14T07:22:13.984Z,99.90
2023-04-14T07:24:41.088Z,99.90
2023-04-14T07:27:15.146Z,99.90
2023-04-14T07:29:42.599Z,99.90
2023-04-14T07:32:09.655Z,99.90
2023-04-14T07:34:37.151Z,99.90
2023-04-14T07:37:04.120Z,99.90
2023-04-14T07:39:31.277Z,99.90
2023-04-14T07:41:59.056Z,99.90
2023-04-14T07:44:26.371Z,99.90
2023-04-14T07:46:53.396Z,99.90
2023-04-14T07:49:20.328Z,99.90
2023-04-14T07:51:47.278Z,99.90
2023-04-14T07:54:14.467Z,99.90
2023-04-14T07:56:42.129Z,99.90
2023-04-14T07:59:09.162Z,99.90
2023-04-14T08:01:36.128Z,99.90
2023-04-14T08:04:03.219Z,99.90
2023-04-14T08:06:30.319Z,99.90
2023-04-14T08:08:57.162Z,99.90
2023-04-14T08:11:24.059Z,99.90
2023-04-14T08:13:52.903Z,99.90
2023-04-14T08:16:20.137Z,99.90
2023-04-14T08:18:47.714Z,99.90
2023-04-14T08:21:14.785Z,99.90
2023-04-14T08:23:41.585Z,99.90
2023-04-14T08:26:08.476Z,99.90
2023-04-14T08:28:35.681Z,99.90
2023-04-14T08:31:02.507Z,99.90
2023-04-14T08:33:29.432Z,99.90
2023-04-14T08:36:00.077Z,99.90
2023-04-14T08:38:28.722Z,99.90
2023-04-14T08:40:56.654Z,99.90
2023-04-14T08:43:23.785Z,99.90
2023-04-14T08:45:53.973Z,99.90
2023-04-14T08:48:25.048Z,99.90
2023-04-14T08:51:34.341Z,99.90
2023-04-14T08:54:04.551Z,99.90
2023-04-14T08:56:34.713Z,99.90
2023-04-14T08:59:01.947Z,99.90
2023-04-14T09:01:29.786Z,99.90
2023-04-14T09:03:57.884Z,99.90
2023-04-14T09:06:25.534Z,99.90
2023-04-14T09:08:52.973Z,99.90
2023-04-14T09:11:20.088Z,99.90
2023-04-14T09:13:49.849Z,99.90
2023-04-14T09:16:17.556Z,99.90
2023-04-14T09:18:47.407Z,99.90
2023-04-14T09:21:31.050Z,99.90
2023-04-14T09:24:06.151Z,99.90
2023-04-14T09:26:33.248Z,99.90
2023-04-14T09:29:00.615Z,99.90
2023-04-14T09:31:27.848Z,99.90
2023-04-14T09:33:54.925Z,99.90
2023-04-14T09:36:23.681Z,99.90
2023-04-14T09:38:51.875Z,99.90
2023-04-14T09:41:22.532Z,99.90
2023-04-14T09:43:50.389Z,99.90
2023-04-14T09:46:17.373Z,99.90
2023-04-14T09:48:55.653Z,99.90
2023-04-14T09:51:29.862Z,99.90
2023-04-14T09:54:03.103Z,99.90
2023-04-14T09:56:30.387Z,99.90
2023-04-14T09:59:02.214Z,99.90
2023-04-14T10:01:34.428Z,99.90
2023-04-14T10:04:03.015Z,99.20
2023-04-14T10:06:33.928Z,99.50
2023-04-14T10:09:01.896Z,99.30
2023-04-14T10:11:32.977Z,99.70
2023-04-14T10:14:04.087Z,98.00
2023-04-14T10:16:31.570Z,98.50
2023-04-14T10:18:59.009Z,98.00
2023-04-14T10:21:27.865Z,97.60
2023-04-14T10:23:57.305Z,97.10
2023-04-14T10:26:24.241Z,97.30
2023-04-14T10:28:53.803Z,98.00
2023-04-14T10:31:40.356Z,97.20
2023-04-14T10:34:15.802Z,97.10
2023-04-14T10:36:44.032Z,97.40
2023-04-14T10:39:12.589Z,97.40
2023-04-14T10:41:49.687Z,97.50
2023-04-14T10:44:28.462Z,97.60
2023-04-14T10:46:56.925Z,96.20
2023-04-14T10:49:35.055Z,96.00
2023-04-14T10:52:04.000Z,96.80
2023-04-14T10:54:58.356Z,95.40
2023-04-14T10:57:29.899Z,94.30
2023-04-14T11:00:00.461Z,94.40
2023-04-14T11:02:34.661Z,94.50
2023-04-14T11:05:09.219Z,94.90
2023-04-14T11:07:47.139Z,95.30
2023-04-14T11:10:20.103Z,95.10
2023-04-14T11:12:48.313Z,95.00
2023-04-14T11:15:16.980Z,95.00
2023-04-14T11:17:44.933Z,95.30
2023-04-14T11:20:20.159Z,95.50
2023-04-14T11:22:49.313Z,95.40
2023-04-14T11:25:19.129Z,95.50
2023-04-14T11:27:48.552Z,95.60
2023-04-14T11:30:17.397Z,95.80
2023-04-14T11:32:51.347Z,95.00
2023-04-14T11:35:20.470Z,95.10
2023-04-14T11:37:47.665Z,94.90
2023-04-14T11:40:15.933Z,95.30
2023-04-14T11:42:47.230Z,94.70
2023-04-14T11:45:17.800Z,94.00
2023-04-14T11:48:04.712Z,94.00
2023-04-14T11:50:33.730Z,93.80
2023-04-14T11:53:01.042Z,93.90
2023-04-14T11:55:28.547Z,93.30
2023-04-14T11:57:57.059Z,93.30
2023-04-14T12:00:27.754Z,92.80
2023-04-14T12:02:55.270Z,92.80
2023-04-14T12:05:33.926Z,93.20
2023-04-14T12:08:03.858Z,92.90
2023-04-14T12:10:32.006Z,92.80
2023-04-14T12:13:10.506Z,93.20
2023-04-14T12:15:42.214Z,93.70
2023-04-14T12:18:15.892Z,93.70
2023-04-14T12:20:47.813Z,93.60
2023-04-14T12:23:16.058Z,93.20
2023-04-14T12:25:43.347Z,93.10
2023-04-14T12:28:10.333Z,93.20
2023-04-14T12:30:37.854Z,92.90
2023-04-14T12:33:12.168Z,92.80
2023-04-14T12:35:40.579Z,92.90
2023-04-14T12:38:14.813Z,92.80
2023-04-14T12:40:47.844Z,93.10
2023-04-14T12:43:16.817Z,93.50
2023-04-14T12:45:48.530Z,92.80
2023-04-14T12:48:17.632Z,92.80
2023-04-14T12:50:45.100Z,93.20
2023-04-14T12:53:25.110Z,93.20
2023-04-14T12:56:16.024Z,93.40
2023-04-14T12:58:47.293Z,93.50
2023-04-14T13:01:19.313Z,93.60
2023-04-14T13:03:55.590Z,93.10
2023-04-14T13:06:24.458Z,93.10
2023-04-14T13:08:53.153Z,93.20
2023-04-14T13:11:22.228Z,93.00
2023-04-14T13:13:49.595Z,92.30
2023-04-14T13:16:18.782Z,92.50
2023-04-14T13:18:47.603Z,92.20
2023-04-14T13:21:14.776Z,92.60
2023-04-14T13:23:41.784Z,94.10
2023-04-14T13:26:08.757Z,95.90
2023-04-14T13:28:36.830Z,96.20
2023-04-14T13:31:03.763Z,95.40
2023-04-14T13:33:31.112Z,96.80
2023-04-14T13:35:57.991Z,98.00
2023-04-14T13:38:24.832Z,98.30
2023-04-14T13:40:51.691Z,98.00
2023-04-14T13:43:19.231Z,97.80
2023-04-14T13:45:47.885Z,97.70
2023-04-14T13:48:14.982Z,97.90
2023-04-14T13:50:42.206Z,98.80
2023-04-14T13:53:09.221Z,99.20
2023-04-14T13:55:36.436Z,98.90
2023-04-14T13:58:03.752Z,99.00
2023-04-14T14:00:30.805Z,97.90
2023-04-14T14:02:57.950Z,97.40
2023-04-14T14:05:25.730Z,97.30
2023-04-14T14:07:52.697Z,97.00
2023-04-14T14:10:19.719Z,96.90
2023-04-14T14:12:46.593Z,96.70
2023-04-14T14:15:13.572Z,96.70
2023-04-14T14:17:40.878Z,96.10
2023-04-14T14:20:09.018Z,95.30
2023-04-14T14:22:35.933Z,94.30
2023-04-14T14:25:17.638Z,93.80
2023-04-14T14:27:47.011Z,94.00
2023-04-14T14:30:14.049Z,93.70
2023-04-14T14:32:41.021Z,93.50
2023-04-14T14:35:08.258Z,93.30
2023-04-14T14:37:35.226Z,93.30
2023-04-14T14:40:02.237Z,93.40
2023-04-14T14:42:29.105Z,93.40
2023-04-14T14:44:55.945Z,93.40
2023-04-14T14:47:25.020Z,93.10
2023-04-14T14:49:59.650Z,92.60
2023-04-14T14:52:29.645Z,92.70
2023-04-14T14:54:56.670Z,92.60
2023-04-14T14:57:23.526Z,92.70
2023-04-14T14:59:50.354Z,92.50
2023-04-14T15:02:17.649Z,92.10
2023-04-14T15:04:44.680Z,91.90
2023-04-14T15:07:13.258Z,91.30
2023-04-14T15:09:40.588Z,91.30
2023-04-14T15:12:08.324Z,91.50
2023-04-14T15:14:35.629Z,91.50
2023-04-14T15:17:03.054Z,91.50
2023-04-14T15:19:29.916Z,91.80
2023-04-14T15:21:56.847Z,91.80
2023-04-14T15:24:23.661Z,91.60
2023-04-14T15:26:50.489Z,91.70
2023-04-14T15:29:17.348Z,91.00
2023-04-14T15:31:45.507Z,90.70
2023-04-14T15:34:12.374Z,91.00
2023-04-14T15:36:39.220Z,90.20
2023-04-14T15:39:06.025Z,90.30
2023-04-14T15:41:32.897Z,90.10
2023-04-14T15:44:00.072Z,90.20
2023-04-14T15:46:27.353Z,90.20
2023-04-14T15:48:54.264Z,88.90
2023-04-14T15:51:21.216Z,88.60
2023-04-14T15:53:48.105Z,88.10
2023-04-14T15:56:14.982Z,89.10
2023-04-14T15:58:42.508Z,87.40
2023-04-14T16:01:09.656Z,87.20
2023-04-14T16:03:38.137Z,86.90
2023-04-14T16:06:07.219Z,89.30
2023-04-14T16:08:34.275Z,88.00
2023-04-14T16:11:01.184Z,88.30
2023-04-14T16:13:28.178Z,89.10
2023-04-14T16:15:55.125Z,87.20
2023-04-14T16:18:22.040Z,85.80
2023-04-14T16:20:50.276Z,85.00
2023-04-14T16:23:17.324Z,85.60
2023-04-14T16:25:49.421Z,86.40
2023-04-14T16:28:16.358Z,87.90
2023-04-14T16:30:43.385Z,88.10
2023-04-14T16:33:10.568Z,89.50
2023-04-14T16:35:37.425Z,90.20
2023-04-14T16:38:08.428Z,90.50
2023-04-14T16:40:36.088Z,90.30
2023-04-14T16:43:04.081Z,90.50
2023-04-14T16:45:31.985Z,90.40
2023-04-14T16:47:59.386Z,89.80
2023-04-14T16:50:26.943Z,85.90
2023-04-14T16:52:54.019Z,84.20
2023-04-14T16:55:21.075Z,83.60
2023-04-14T16:57:48.082Z,84.00
2023-04-14T17:00:16.628Z,85.20
2023-04-14T17:02:43.931Z,86.90
2023-04-14T17:05:13.232Z,87.50
2023-04-14T17:07:40.870Z,87.80
2023-04-14T17:10:08.334Z,87.00
2023-04-14T17:12:35.260Z,86.70
2023-04-14T17:15:03.695Z,87.00
2023-04-14T17:17:31.631Z,88.10
2023-04-14T17:19:58.460Z,89.00
2023-04-14T17:22:25.299Z,89.60
2023-04-14T17:24:52.421Z,90.00
2023-04-14T17:27:19.482Z,90.50
2023-04-14T17:29:46.462Z,90.80
2023-04-14T17:32:14.010Z,91.10
2023-04-14T17:34:40.896Z,91.30
2023-04-14T17:37:07.996Z,91.60
2023-04-14T17:39:35.104Z,91.90
2023-04-14T17:42:02.193Z,92.30
2023-04-14T17:44:34.324Z,92.30
2023-04-14T17:47:03.692Z,92.70
2023-04-14T17:49:31.679Z,92.60
2023-04-14T17:51:58.682Z,93.10
2023-04-14T17:54:26.393Z,93.70
2023-04-14T17:56:53.935Z,94.10
2023-04-14T17:59:21.541Z,94.00
2023-04-14T18:01:49.018Z,94.30
2023-04-14T18:04:16.156Z,94.70
2023-04-14T18:06:43.084Z,94.80
2023-04-14T18:09:10.873Z,95.20
2023-04-14T18:11:38.049Z,95.50
2023-04-14T18:14:04.917Z,95.80
2023-04-14T18:16:32.490Z,96.00
2023-04-14T18:18:59.750Z,95.80
2023-04-14T18:21:27.524Z,95.80
2023-04-14T18:26:27.330Z,96.30
2023-04-14T18:28:55.749Z,96.90
2023-04-14T18:31:22.854Z,97.10
2023-04-14T18:33:49.732Z,96.90
2023-04-14T18:36:16.619Z,96.90
2023-04-14T18:38:43.453Z,97.40
2023-04-14T18:41:10.368Z,97.60
2023-04-14T18:43:38.038Z,97.70
2023-04-14T18:46:04.941Z,97.80
2023-04-14T18:48:32.035Z,98.10
2023-04-14T18:51:02.468Z,98.20
2023-04-14T18:53:29.618Z,98.50
2023-04-14T18:55:57.310Z,99.20
2023-04-14T18:58:25.227Z,99.40
2023-04-14T19:00:52.087Z,99.50
2023-04-14T19:03:19.174Z,99.70
2023-04-14T19:05:47.314Z,99.40
2023-04-14T19:08:14.299Z,99.60
2023-04-14T19:10:41.894Z,99.60
2023-04-14T19:13:08.873Z,99.40
2023-04-14T19:15:35.789Z,99.10
2023-04-14T19:18:05.061Z,98.60
2023-04-14T19:20:32.213Z,98.50
2023-04-14T19:22:59.316Z,98.70
2023-04-14T19:25:26.545Z,98.70
2023-04-14T19:27:53.390Z,98.70
2023-04-14T19:30:20.597Z,98.40
2023-04-14T19:32:48.109Z,99.50
2023-04-14T19:35:15.028Z,99.90
2023-04-14T19:37:41.909Z,99.90
2023-04-14T19:40:11.042Z,99.90
2023-04-14T19:42:38.176Z,99.90
2023-04-14T19:45:05.787Z,99.90
2023-04-14T19:47:32.839Z,99.90
2023-04-14T19:50:00.278Z,99.90
2023-04-14T19:52:28.323Z,99.90
2023-04-14T19:54:56.823Z,99.90
2023-04-14T19:57:24.165Z,99.90
2023-04-14T19:59:51.140Z,99.90
2023-04-14T20:02:19.110Z,99.90
2023-04-14T20:04:46.944Z,99.90
2023-04-14T20:07:13.899Z,99.90
2023-04-14T20:09:44.988Z,99.90
2023-04-14T20:12:12.159Z,99.90
2023-04-14T20:14:40.291Z,99.90
2023-04-14T20:17:07.394Z,99.90
2023-04-14T20:19:34.284Z,99.90
2023-04-14T20:22:01.205Z,99.90
2023-04-14T20:24:28.123Z,99.90
2023-04-14T20:26:55.497Z,99.90
2023-04-14T20:29:23.424Z,99.90
2023-04-14T20:31:51.494Z,99.90
2023-04-14T20:34:18.372Z,99.90
2023-04-14T20:36:45.770Z,99.90
2023-04-14T20:39:13.339Z,99.90
2023-04-14T20:41:40.349Z,99.90
2023-04-14T20:44:07.361Z,99.90
2023-04-14T20:46:34.377Z,99.90
2023-04-14T20:49:02.667Z,99.90
2023-04-14T20:51:30.094Z,99.90
2023-04-14T20:53:57.027Z,99.90
2023-04-14T20:56:27.258Z,99.90
2023-04-14T20:58:54.525Z,99.90
2023-04-14T21:01:21.427Z,99.90
2023-04-14T21:03:48.574Z,99.90
2023-04-14T21:06:16.152Z,99.90
2023-04-14T21:08:43.131Z,99.90
2023-04-14T21:11:16.638Z,99.90
2023-04-14T21:15:29.229Z,99.90
2023-04-14T21:16:35.953Z,99.90
2023-04-14T21:19:04.322Z,99.90
2023-04-14T21:21:33.238Z,99.90
2023-04-14T21:24:00.382Z,99.90
2023-04-14T21:26:28.592Z,99.90
2023-04-14T21:28:56.652Z,99.90
2023-04-14T21:31:23.543Z,99.90
2023-04-14T21:33:50.744Z,99.90
2023-04-14T21:36:18.822Z,99.90
2023-04-14T21:38:45.741Z,99.90
2023-04-14T21:41:13.202Z,99.90
2023-04-14T21:43:40.072Z,99.90
2023-04-14T21:46:06.969Z,99.90
2023-04-14T21:48:33.862Z,99.90
2023-04-14T21:51:00.710Z,99.90
2023-04-14T21:53:27.738Z,99.90
2023-04-14T21:56:09.149Z,99.90
2023-04-14T21:58:37.915Z,99.90
2023-04-14T22:01:05.149Z,99.90
2023-04-14T22:03:33.313Z,99.90
2023-04-14T22:06:00.302Z,99.90
2023-04-14T22:08:27.263Z,99.90
2023-04-14T22:10:54.927Z,99.90
2023-04-14T22:13:24.821Z,99.90
2023-04-14T22:15:51.899Z,99.90
2023-04-14T22:18:19.147Z,99.90
2023-04-14T22:20:46.026Z,99.90
2023-04-14T22:23:13.338Z,99.90
2023-04-14T22:25:40.266Z,99.90
2023-04-14T22:28:07.488Z,99.90
2023-04-14T22:30:35.252Z,99.90
2023-04-14T22:33:02.454Z,99.90
2023-04-14T22:35:29.975Z,99.90
2023-04-14T22:37:57.100Z,99.90
2023-04-14T22:40:24.387Z,99.90
2023-04-14T22:42:51.744Z,99.90
2023-04-14T22:45:18.712Z,99.90
2023-04-14T22:47:45.746Z,99.90
2023-04-14T22:50:12.913Z,99.90
2023-04-14T22:52:39.774Z,99.90
2023-04-14T22:55:07.787Z,99.90
2023-04-14T22:57:34.680Z,99.90
2023-04-14T23:00:09.038Z,99.90
2023-04-14T23:02:36.656Z,99.90
2023-04-14T23:05:04.286Z,99.90
2023-04-14T23:07:31.729Z,99.90
2023-04-14T23:09:58.681Z,99.90
2023-04-14T23:12:26.214Z,99.90
2023-04-14T23:14:53.226Z,99.90
2023-04-14T23:17:20.772Z,99.90
2023-04-14T23:19:47.669Z,99.90
2023-04-14T23:22:15.280Z,99.90
2023-04-14T23:24:42.852Z,99.90
2023-04-14T23:27:09.743Z,99.90
2023-04-14T23:29:37.581Z,99.90
2023-04-14T23:32:11.711Z,99.90
2023-04-14T23:34:38.726Z,99.90
2023-04-14T23:37:05.693Z,99.90
2023-04-14T23:39:32.711Z,99.90
2023-04-14T23:41:59.589Z,99.90
2023-04-14T23:44:27.384Z,99.90
2023-04-14T23:46:54.325Z,99.90
2023-04-14T23:49:24.309Z,99.90
2023-04-14T23:52:01.042Z,99.90
2023-04-14T23:54:27.867Z,99.90
2023-04-14T23:56:54.728Z,99.90
2023-04-14T23:59:21.997Z,99.90
